sensor_id;sensor_type;location;lat;lon;timestamp;temperature;humidity
53802;DHT22;39709;53.334;6.534;2022-07-06T00:01:14;15.20;1.00
53802;DHT22;39709;53.334;6.534;2022-07-06T00:03:40;15.20;1.00
53802;DHT22;39709;53.334;6.534;2022-07-06T00:06:06;15.20;1.00
53802;DHT22;39709;53.334;6.534;2022-07-06T00:08:31;15.20;1.00
53802;DHT22;39709;53.334;6.534;2022-07-06T00:10:57;15.20;1.00
53802;DHT22;39709;53.334;6.534;2022-07-06T00:13:23;15.10;1.00
53802;DHT22;39709;53.334;6.534;2022-07-06T00:15:48;15.20;1.00
53802;DHT22;39709;53.334;6.534;2022-07-06T00:18:14;15.10;1.00
53802;DHT22;39709;53.334;6.534;2022-07-06T00:20:39;15.10;1.00
53802;DHT22;39709;53.334;6.534;2022-07-06T00:23:05;15.10;1.00
53802;DHT22;39709;53.334;6.534;2022-07-06T00:25:30;15.10;1.00
53802;DHT22;39709;53.334;6.534;2022-07-06T00:27:56;15.10;1.00
53802;DHT22;39709;53.334;6.534;2022-07-06T00:30:21;15.00;1.00
53802;DHT22;39709;53.334;6.534;2022-07-06T00:32:47;15.00;1.00
53802;DHT22;39709;53.334;6.534;2022-07-06T00:35:12;15.00;1.00
53802;DHT22;39709;53.334;6.534;2022-07-06T00:37:38;15.00;1.00
53802;DHT22;39709;53.334;6.534;2022-07-06T00:40:04;15.00;1.00
53802;DHT22;39709;53.334;6.534;2022-07-06T00:42:30;14.90;1.00
53802;DHT22;39709;53.334;6.534;2022-07-06T00:44:55;15.00;1.00
53802;DHT22;39709;53.334;6.534;2022-07-06T00:47:21;15.00;1.00
53802;DHT22;39709;53.334;6.534;2022-07-06T00:49:46;15.00;1.00
53802;DHT22;39709;53.334;6.534;2022-07-06T00:52:30;15.00;1.00
53802;DHT22;39709;53.334;6.534;2022-07-06T00:54:56;15.10;1.00
53802;DHT22;39709;53.334;6.534;2022-07-06T00:57:22;15.00;1.00
53802;DHT22;39709;53.334;6.534;2022-07-06T00:59:48;15.00;1.00
53802;DHT22;39709;53.334;6.534;2022-07-06T01:02:13;15.10;1.00
53802;DHT22;39709;53.334;6.534;2022-07-06T01:04:39;15.00;1.00
53802;DHT22;39709;53.334;6.534;2022-07-06T01:07:04;15.00;1.00
53802;DHT22;39709;53.334;6.534;2022-07-06T01:09:30;15.00;1.00
53802;DHT22;39709;53.334;6.534;2022-07-06T01:11:56;15.00;1.00
53802;DHT22;39709;53.334;6.534;2022-07-06T01:14:21;15.00;1.00
53802;DHT22;39709;53.334;6.534;2022-07-06T01:16:47;15.00;1.00
53802;DHT22;39709;53.334;6.534;2022-07-06T01:19:13;15.00;1.00
53802;DHT22;39709;53.334;6.534;2022-07-06T01:21:39;15.00;1.00
53802;DHT22;39709;53.334;6.534;2022-07-06T01:24:04;14.90;1.00
53802;DHT22;39709;53.334;6.534;2022-07-06T01:26:30;14.90;1.00
53802;DHT22;39709;53.334;6.534;2022-07-06T01:28:56;14.90;1.00
53802;DHT22;39709;53.334;6.534;2022-07-06T01:31:23;14.80;1.00
53802;DHT22;39709;53.334;6.534;2022-07-06T01:33:49;14.80;1.00
53802;DHT22;39709;53.334;6.534;2022-07-06T01:36:16;14.80;1.00
53802;DHT22;39709;53.334;6.534;2022-07-06T01:38:45;14.80;1.00
53802;DHT22;39709;53.334;6.534;2022-07-06T01:41:11;14.80;1.00
53802;DHT22;39709;53.334;6.534;2022-07-06T01:43:37;14.80;1.00
53802;DHT22;39709;53.334;6.534;2022-07-06T01:46:02;14.80;1.00
53802;DHT22;39709;53.334;6.534;2022-07-06T01:48:28;14.80;1.00
53802;DHT22;39709;53.334;6.534;2022-07-06T01:50:53;14.80;1.00
53802;DHT22;39709;53.334;6.534;2022-07-06T01:53:19;14.70;1.00
53802;DHT22;39709;53.334;6.534;2022-07-06T01:55:45;14.70;1.00
53802;DHT22;39709;53.334;6.534;2022-07-06T01:58:10;14.60;1.00
53802;DHT22;39709;53.334;6.534;2022-07-06T02:00:36;14.60;1.00
53802;DHT22;39709;53.334;6.534;2022-07-06T02:03:01;14.50;1.00
53802;DHT22;39709;53.334;6.534;2022-07-06T02:05:27;14.50;1.00
53802;DHT22;39709;53.334;6.534;2022-07-06T02:07:52;14.40;1.00
53802;DHT22;39709;53.334;6.534;2022-07-06T02:10:18;14.30;1.00
53802;DHT22;39709;53.334;6.534;2022-07-06T02:12:43;14.20;1.00
53802;DHT22;39709;53.334;6.534;2022-07-06T02:15:09;14.20;1.00
53802;DHT22;39709;53.334;6.534;2022-07-06T02:17:35;14.10;1.00
53802;DHT22;39709;53.334;6.534;2022-07-06T02:20:00;14.00;1.00
53802;DHT22;39709;53.334;6.534;2022-07-06T02:22:26;13.90;1.00
53802;DHT22;39709;53.334;6.534;2022-07-06T02:24:51;13.90;1.00
53802;DHT22;39709;53.334;6.534;2022-07-06T02:27:17;13.80;1.00
53802;DHT22;39709;53.334;6.534;2022-07-06T02:29:43;13.70;1.00
53802;DHT22;39709;53.334;6.534;2022-07-06T02:32:08;13.70;1.00
53802;DHT22;39709;53.334;6.534;2022-07-06T02:34:34;13.70;1.00
53802;DHT22;39709;53.334;6.534;2022-07-06T02:36:59;13.70;1.00
53802;DHT22;39709;53.334;6.534;2022-07-06T02:39:25;13.60;1.00
53802;DHT22;39709;53.334;6.534;2022-07-06T02:41:51;13.60;1.00
53802;DHT22;39709;53.334;6.534;2022-07-06T02:44:17;13.60;1.00
53802;DHT22;39709;53.334;6.534;2022-07-06T02:46:42;13.60;1.00
53802;DHT22;39709;53.334;6.534;2022-07-06T02:49:08;13.60;1.00
53802;DHT22;39709;53.334;6.534;2022-07-06T02:51:33;13.60;1.00
53802;DHT22;39709;53.334;6.534;2022-07-06T02:53:59;13.70;1.00
53802;DHT22;39709;53.334;6.534;2022-07-06T02:56:24;13.60;1.00
53802;DHT22;39709;53.334;6.534;2022-07-06T02:58:50;13.50;1.00
53802;DHT22;39709;53.334;6.534;2022-07-06T03:01:15;13.30;1.00
53802;DHT22;39709;53.334;6.534;2022-07-06T03:03:41;13.20;1.00
53802;DHT22;39709;53.334;6.534;2022-07-06T03:06:06;13.10;1.00
53802;DHT22;39709;53.334;6.534;2022-07-06T03:08:32;13.10;1.00
53802;DHT22;39709;53.334;6.534;2022-07-06T03:10:59;13.00;1.00
53802;DHT22;39709;53.334;6.534;2022-07-06T03:13:25;13.00;1.00
53802;DHT22;39709;53.334;6.534;2022-07-06T03:15:51;12.90;1.00
53802;DHT22;39709;53.334;6.534;2022-07-06T03:18:17;12.90;1.00
53802;DHT22;39709;53.334;6.534;2022-07-06T03:20:42;12.80;1.00
53802;DHT22;39709;53.334;6.534;2022-07-06T03:23:08;12.80;1.00
53802;DHT22;39709;53.334;6.534;2022-07-06T03:25:34;12.80;1.00
53802;DHT22;39709;53.334;6.534;2022-07-06T03:27:59;12.70;1.00
53802;DHT22;39709;53.334;6.534;2022-07-06T03:30:25;12.70;1.00
53802;DHT22;39709;53.334;6.534;2022-07-06T03:32:50;12.70;1.00
53802;DHT22;39709;53.334;6.534;2022-07-06T03:35:16;12.70;1.00
53802;DHT22;39709;53.334;6.534;2022-07-06T03:37:41;12.70;1.00
53802;DHT22;39709;53.334;6.534;2022-07-06T03:40:07;12.70;1.00
53802;DHT22;39709;53.334;6.534;2022-07-06T03:42:33;12.70;1.00
53802;DHT22;39709;53.334;6.534;2022-07-06T03:44:59;12.70;1.00
53802;DHT22;39709;53.334;6.534;2022-07-06T03:47:24;12.70;1.00
53802;DHT22;39709;53.334;6.534;2022-07-06T03:49:50;12.60;1.00
53802;DHT22;39709;53.334;6.534;2022-07-06T03:52:15;12.60;1.00
53802;DHT22;39709;53.334;6.534;2022-07-06T03:54:41;12.60;1.00
53802;DHT22;39709;53.334;6.534;2022-07-06T03:57:06;12.70;1.00
53802;DHT22;39709;53.334;6.534;2022-07-06T03:59:32;12.60;1.00
53802;DHT22;39709;53.334;6.534;2022-07-06T04:01:57;12.60;1.00
53802;DHT22;39709;53.334;6.534;2022-07-06T04:04:23;12.70;1.00
53802;DHT22;39709;53.334;6.534;2022-07-06T04:06:48;12.90;1.00
53802;DHT22;39709;53.334;6.534;2022-07-06T04:09:14;13.00;1.00
53802;DHT22;39709;53.334;6.534;2022-07-06T04:11:39;13.00;1.00
53802;DHT22;39709;53.334;6.534;2022-07-06T04:14:05;13.00;1.00
53802;DHT22;39709;53.334;6.534;2022-07-06T04:16:30;13.00;1.00
53802;DHT22;39709;53.334;6.534;2022-07-06T04:18:56;13.00;1.00
53802;DHT22;39709;53.334;6.534;2022-07-06T04:21:22;13.10;1.00
53802;DHT22;39709;53.334;6.534;2022-07-06T04:23:47;13.20;1.00
53802;DHT22;39709;53.334;6.534;2022-07-06T04:26:13;13.30;8.60
53802;DHT22;39709;53.334;6.534;2022-07-06T04:28:38;13.20;5.40
53802;DHT22;39709;53.334;6.534;2022-07-06T04:31:04;13.20;14.70
53802;DHT22;39709;53.334;6.534;2022-07-06T04:33:29;13.30;17.00
53802;DHT22;39709;53.334;6.534;2022-07-06T04:35:55;13.20;13.30
53802;DHT22;39709;53.334;6.534;2022-07-06T04:38:20;13.50;18.50
53802;DHT22;39709;53.334;6.534;2022-07-06T04:40:46;13.60;16.90
53802;DHT22;39709;53.334;6.534;2022-07-06T04:43:12;13.50;14.80
53802;DHT22;39709;53.334;6.534;2022-07-06T04:45:38;13.70;18.40
53802;DHT22;39709;53.334;6.534;2022-07-06T04:48:03;13.70;4.80
53802;DHT22;39709;53.334;6.534;2022-07-06T04:50:29;13.70;15.60
53802;DHT22;39709;53.334;6.534;2022-07-06T04:52:55;13.80;13.00
53802;DHT22;39709;53.334;6.534;2022-07-06T04:55:20;13.80;14.50
53802;DHT22;39709;53.334;6.534;2022-07-06T04:57:46;13.90;13.10
53802;DHT22;39709;53.334;6.534;2022-07-06T05:00:12;13.90;11.70
53802;DHT22;39709;53.334;6.534;2022-07-06T05:02:37;13.90;1.00
53802;DHT22;39709;53.334;6.534;2022-07-06T05:05:03;14.00;9.70
53802;DHT22;39709;53.334;6.534;2022-07-06T05:07:29;14.00;3.10
53802;DHT22;39709;53.334;6.534;2022-07-06T05:09:56;14.10;1.00
53802;DHT22;39709;53.334;6.534;2022-07-06T05:12:22;14.10;1.00
53802;DHT22;39709;53.334;6.534;2022-07-06T05:14:47;14.10;1.00
53802;DHT22;39709;53.334;6.534;2022-07-06T05:17:13;14.10;1.00
53802;DHT22;39709;53.334;6.534;2022-07-06T05:19:38;14.20;1.00
53802;DHT22;39709;53.334;6.534;2022-07-06T05:22:04;14.20;1.00
53802;DHT22;39709;53.334;6.534;2022-07-06T05:24:29;14.20;1.00
53802;DHT22;39709;53.334;6.534;2022-07-06T05:26:55;14.30;1.00
53802;DHT22;39709;53.334;6.534;2022-07-06T05:29:21;14.40;1.00
53802;DHT22;39709;53.334;6.534;2022-07-06T05:31:46;14.60;1.00
53802;DHT22;39709;53.334;6.534;2022-07-06T05:34:12;14.80;1.00
53802;DHT22;39709;53.334;6.534;2022-07-06T05:36:37;15.00;1.00
53802;DHT22;39709;53.334;6.534;2022-07-06T05:39:03;15.10;1.00
53802;DHT22;39709;53.334;6.534;2022-07-06T05:41:28;15.20;1.00
53802;DHT22;39709;53.334;6.534;2022-07-06T05:43:54;15.30;1.00
53802;DHT22;39709;53.334;6.534;2022-07-06T05:46:20;15.50;1.00
53802;DHT22;39709;53.334;6.534;2022-07-06T05:48:45;15.60;1.00
53802;DHT22;39709;53.334;6.534;2022-07-06T05:51:30;15.60;1.00
53802;DHT22;39709;53.334;6.534;2022-07-06T05:53:55;15.60;1.00
53802;DHT22;39709;53.334;6.534;2022-07-06T05:56:21;15.50;1.00
53802;DHT22;39709;53.334;6.534;2022-07-06T05:58:46;15.50;1.00
53802;DHT22;39709;53.334;6.534;2022-07-06T06:01:12;15.50;1.00
53802;DHT22;39709;53.334;6.534;2022-07-06T06:03:37;15.50;1.00
53802;DHT22;39709;53.334;6.534;2022-07-06T06:06:03;15.40;1.00
53802;DHT22;39709;53.334;6.534;2022-07-06T06:08:28;15.40;1.00
53802;DHT22;39709;53.334;6.534;2022-07-06T06:10:54;15.30;1.00
53802;DHT22;39709;53.334;6.534;2022-07-06T06:13:20;15.20;1.00
53802;DHT22;39709;53.334;6.534;2022-07-06T06:15:45;15.20;1.00
53802;DHT22;39709;53.334;6.534;2022-07-06T06:18:11;15.20;1.00
53802;DHT22;39709;53.334;6.534;2022-07-06T06:20:36;15.30;1.00
53802;DHT22;39709;53.334;6.534;2022-07-06T06:23:02;15.20;1.00
53802;DHT22;39709;53.334;6.534;2022-07-06T06:27:55;15.30;1.00
53802;DHT22;39709;53.334;6.534;2022-07-06T06:30:21;15.30;1.00
53802;DHT22;39709;53.334;6.534;2022-07-06T06:32:47;15.40;1.00
53802;DHT22;39709;53.334;6.534;2022-07-06T06:35:12;15.30;1.00
53802;DHT22;39709;53.334;6.534;2022-07-06T06:37:38;15.40;1.00
53802;DHT22;39709;53.334;6.534;2022-07-06T06:40:04;15.60;1.00
53802;DHT22;39709;53.334;6.534;2022-07-06T06:42:30;15.90;1.00
53802;DHT22;39709;53.334;6.534;2022-07-06T06:44:55;16.10;1.00
53802;DHT22;39709;53.334;6.534;2022-07-06T06:47:21;16.40;1.00
53802;DHT22;39709;53.334;6.534;2022-07-06T06:49:47;16.40;1.00
53802;DHT22;39709;53.334;6.534;2022-07-06T06:52:13;16.40;1.00
53802;DHT22;39709;53.334;6.534;2022-07-06T06:54:38;16.40;1.00
53802;DHT22;39709;53.334;6.534;2022-07-06T06:57:04;16.40;1.00
53802;DHT22;39709;53.334;6.534;2022-07-06T06:59:29;16.40;1.00
53802;DHT22;39709;53.334;6.534;2022-07-06T07:01:55;16.40;1.00
53802;DHT22;39709;53.334;6.534;2022-07-06T07:04:20;16.70;1.00
53802;DHT22;39709;53.334;6.534;2022-07-06T07:06:46;16.70;1.00
53802;DHT22;39709;53.334;6.534;2022-07-06T07:09:11;16.70;1.00
53802;DHT22;39709;53.334;6.534;2022-07-06T07:11:37;16.60;1.00
53802;DHT22;39709;53.334;6.534;2022-07-06T07:14:03;16.90;1.00
53802;DHT22;39709;53.334;6.534;2022-07-06T07:16:28;17.00;1.00
53802;DHT22;39709;53.334;6.534;2022-07-06T07:18:54;17.00;1.00
53802;DHT22;39709;53.334;6.534;2022-07-06T07:21:19;16.80;1.00
53802;DHT22;39709;53.334;6.534;2022-07-06T07:23:45;17.00;1.00
53802;DHT22;39709;53.334;6.534;2022-07-06T07:26:10;17.00;1.00
53802;DHT22;39709;53.334;6.534;2022-07-06T07:28:36;16.90;1.00
53802;DHT22;39709;53.334;6.534;2022-07-06T07:31:02;16.70;1.00
53802;DHT22;39709;53.334;6.534;2022-07-06T07:33:27;16.80;1.00
53802;DHT22;39709;53.334;6.534;2022-07-06T07:35:53;16.90;1.00
53802;DHT22;39709;53.334;6.534;2022-07-06T07:38:18;17.10;1.00
53802;DHT22;39709;53.334;6.534;2022-07-06T07:40:44;17.00;1.00
53802;DHT22;39709;53.334;6.534;2022-07-06T07:43:10;17.00;1.00
53802;DHT22;39709;53.334;6.534;2022-07-06T07:45:35;17.10;1.00
53802;DHT22;39709;53.334;6.534;2022-07-06T07:48:01;17.20;1.00
53802;DHT22;39709;53.334;6.534;2022-07-06T07:50:27;17.30;1.00
53802;DHT22;39709;53.334;6.534;2022-07-06T07:52:54;17.50;1.00
53802;DHT22;39709;53.334;6.534;2022-07-06T07:55:20;17.50;1.00
53802;DHT22;39709;53.334;6.534;2022-07-06T07:57:45;17.50;1.00
53802;DHT22;39709;53.334;6.534;2022-07-06T08:00:11;17.20;1.00
53802;DHT22;39709;53.334;6.534;2022-07-06T08:02:37;17.10;1.00
53802;DHT22;39709;53.334;6.534;2022-07-06T08:05:03;17.30;1.00
53802;DHT22;39709;53.334;6.534;2022-07-06T08:07:28;17.40;1.00
53802;DHT22;39709;53.334;6.534;2022-07-06T08:09:54;17.40;1.00
53802;DHT22;39709;53.334;6.534;2022-07-06T08:12:19;17.40;1.00
53802;DHT22;39709;53.334;6.534;2022-07-06T08:14:45;17.50;1.00
53802;DHT22;39709;53.334;6.534;2022-07-06T08:17:11;17.50;1.00
53802;DHT22;39709;53.334;6.534;2022-07-06T08:19:37;17.60;1.00
53802;DHT22;39709;53.334;6.534;2022-07-06T08:22:02;17.60;1.00
53802;DHT22;39709;53.334;6.534;2022-07-06T08:24:35;17.50;1.00
53802;DHT22;39709;53.334;6.534;2022-07-06T08:27:01;17.60;1.00
53802;DHT22;39709;53.334;6.534;2022-07-06T08:29:26;17.50;1.00
53802;DHT22;39709;53.334;6.534;2022-07-06T08:31:52;17.60;1.00
53802;DHT22;39709;53.334;6.534;2022-07-06T08:34:17;17.40;1.00
53802;DHT22;39709;53.334;6.534;2022-07-06T08:36:43;17.60;1.00
53802;DHT22;39709;53.334;6.534;2022-07-06T08:39:09;17.90;1.00
53802;DHT22;39709;53.334;6.534;2022-07-06T08:41:34;18.00;1.00
53802;DHT22;39709;53.334;6.534;2022-07-06T08:44:01;17.90;1.00
53802;DHT22;39709;53.334;6.534;2022-07-06T08:46:27;17.90;1.00
53802;DHT22;39709;53.334;6.534;2022-07-06T08:48:54;18.10;1.00
53802;DHT22;39709;53.334;6.534;2022-07-06T08:51:20;18.30;1.00
53802;DHT22;39709;53.334;6.534;2022-07-06T08:53:48;18.20;1.00
53802;DHT22;39709;53.334;6.534;2022-07-06T08:56:14;18.00;1.00
53802;DHT22;39709;53.334;6.534;2022-07-06T08:58:41;18.10;1.00
53802;DHT22;39709;53.334;6.534;2022-07-06T09:01:08;18.10;1.00
53802;DHT22;39709;53.334;6.534;2022-07-06T09:03:34;18.00;1.00
53802;DHT22;39709;53.334;6.534;2022-07-06T09:06:00;18.10;1.00
53802;DHT22;39709;53.334;6.534;2022-07-06T09:08:27;18.10;1.00
53802;DHT22;39709;53.334;6.534;2022-07-06T09:10:53;18.20;1.00
53802;DHT22;39709;53.334;6.534;2022-07-06T09:13:18;18.00;1.00
53802;DHT22;39709;53.334;6.534;2022-07-06T09:15:44;17.90;1.00
53802;DHT22;39709;53.334;6.534;2022-07-06T09:18:10;17.60;1.00
53802;DHT22;39709;53.334;6.534;2022-07-06T09:20:35;17.60;1.00
53802;DHT22;39709;53.334;6.534;2022-07-06T09:23:02;17.60;1.00
53802;DHT22;39709;53.334;6.534;2022-07-06T09:25:28;17.90;1.00
53802;DHT22;39709;53.334;6.534;2022-07-06T09:27:55;18.20;1.00
53802;DHT22;39709;53.334;6.534;2022-07-06T09:30:23;18.40;1.00
53802;DHT22;39709;53.334;6.534;2022-07-06T09:32:50;18.50;1.00
53802;DHT22;39709;53.334;6.534;2022-07-06T09:35:23;18.20;1.00
53802;DHT22;39709;53.334;6.534;2022-07-06T09:38:02;18.30;1.00
53802;DHT22;39709;53.334;6.534;2022-07-06T09:40:29;18.40;1.00
53802;DHT22;39709;53.334;6.534;2022-07-06T09:45:40;18.30;1.00
53802;DHT22;39709;53.334;6.534;2022-07-06T09:48:10;18.30;1.00
53802;DHT22;39709;53.334;6.534;2022-07-06T09:50:43;18.50;1.00
53802;DHT22;39709;53.334;6.534;2022-07-06T09:53:12;18.50;1.00
53802;DHT22;39709;53.334;6.534;2022-07-06T09:55:38;18.60;1.00
53802;DHT22;39709;53.334;6.534;2022-07-06T09:58:03;18.70;1.00
53802;DHT22;39709;53.334;6.534;2022-07-06T10:00:29;18.50;1.00
53802;DHT22;39709;53.334;6.534;2022-07-06T10:02:55;18.70;1.00
53802;DHT22;39709;53.334;6.534;2022-07-06T10:05:21;18.60;1.00
53802;DHT22;39709;53.334;6.534;2022-07-06T10:07:52;18.60;1.00
53802;DHT22;39709;53.334;6.534;2022-07-06T10:10:20;18.80;1.00
53802;DHT22;39709;53.334;6.534;2022-07-06T10:12:47;19.00;1.00
53802;DHT22;39709;53.334;6.534;2022-07-06T10:15:16;19.20;1.00
53802;DHT22;39709;53.334;6.534;2022-07-06T10:17:41;19.30;1.00
53802;DHT22;39709;53.334;6.534;2022-07-06T10:20:08;19.50;1.00
53802;DHT22;39709;53.334;6.534;2022-07-06T10:22:34;19.50;1.00
53802;DHT22;39709;53.334;6.534;2022-07-06T10:25:00;19.50;1.00
53802;DHT22;39709;53.334;6.534;2022-07-06T10:27:26;19.50;1.00
53802;DHT22;39709;53.334;6.534;2022-07-06T10:29:52;19.60;1.00
53802;DHT22;39709;53.334;6.534;2022-07-06T10:32:18;19.40;1.00
53802;DHT22;39709;53.334;6.534;2022-07-06T10:34:44;19.60;1.00
53802;DHT22;39709;53.334;6.534;2022-07-06T10:37:21;19.80;1.00
53802;DHT22;39709;53.334;6.534;2022-07-06T10:39:47;19.80;1.00
53802;DHT22;39709;53.334;6.534;2022-07-06T10:42:55;19.60;1.00
53802;DHT22;39709;53.334;6.534;2022-07-06T10:46:05;19.60;1.00
53802;DHT22;39709;53.334;6.534;2022-07-06T10:50:46;19.80;1.00
53802;DHT22;39709;53.334;6.534;2022-07-06T10:53:13;19.80;1.00
53802;DHT22;39709;53.334;6.534;2022-07-06T10:55:39;20.00;1.00
53802;DHT22;39709;53.334;6.534;2022-07-06T10:58:06;20.00;1.00
53802;DHT22;39709;53.334;6.534;2022-07-06T11:00:50;19.80;1.00
53802;DHT22;39709;53.334;6.534;2022-07-06T11:03:29;19.70;1.00
53802;DHT22;39709;53.334;6.534;2022-07-06T11:06:38;19.80;1.00
53802;DHT22;39709;53.334;6.534;2022-07-06T11:11:13;19.90;1.00
53802;DHT22;39709;53.334;6.534;2022-07-06T11:13:52;20.10;1.00
53802;DHT22;39709;53.334;6.534;2022-07-06T11:16:18;20.20;1.00
53802;DHT22;39709;53.334;6.534;2022-07-06T11:18:48;20.40;1.00
53802;DHT22;39709;53.334;6.534;2022-07-06T11:23:45;20.30;1.00
53802;DHT22;39709;53.334;6.534;2022-07-06T11:26:10;20.30;1.00
53802;DHT22;39709;53.334;6.534;2022-07-06T11:28:37;20.30;1.00
53802;DHT22;39709;53.334;6.534;2022-07-06T11:31:02;20.50;1.00
53802;DHT22;39709;53.334;6.534;2022-07-06T11:33:28;20.50;1.00
53802;DHT22;39709;53.334;6.534;2022-07-06T11:38:39;20.60;1.00
53802;DHT22;39709;53.334;6.534;2022-07-06T11:41:05;20.60;1.00
53802;DHT22;39709;53.334;6.534;2022-07-06T11:43:30;20.50;1.00
53802;DHT22;39709;53.334;6.534;2022-07-06T11:45:56;20.50;1.00
53802;DHT22;39709;53.334;6.534;2022-07-06T11:48:21;20.90;1.00
53802;DHT22;39709;53.334;6.534;2022-07-06T11:51:00;21.10;1.00
53802;DHT22;39709;53.334;6.534;2022-07-06T11:53:26;21.00;1.00
53802;DHT22;39709;53.334;6.534;2022-07-06T11:55:52;21.00;1.00
53802;DHT22;39709;53.334;6.534;2022-07-06T11:58:22;21.00;1.00
53802;DHT22;39709;53.334;6.534;2022-07-06T12:01:21;21.10;1.00
53802;DHT22;39709;53.334;6.534;2022-07-06T12:03:40;21.20;1.00
53802;DHT22;39709;53.334;6.534;2022-07-06T12:06:06;21.30;1.00
53802;DHT22;39709;53.334;6.534;2022-07-06T12:08:44;21.30;1.00
53802;DHT22;39709;53.334;6.534;2022-07-06T12:11:10;21.40;1.00
53802;DHT22;39709;53.334;6.534;2022-07-06T12:13:36;21.30;1.00
53802;DHT22;39709;53.334;6.534;2022-07-06T12:16:11;21.50;1.00
53802;DHT22;39709;53.334;6.534;2022-07-06T12:18:40;21.60;1.00
53802;DHT22;39709;53.334;6.534;2022-07-06T12:21:10;21.60;1.00
53802;DHT22;39709;53.334;6.534;2022-07-06T12:23:42;21.60;1.00
53802;DHT22;39709;53.334;6.534;2022-07-06T12:26:09;21.60;1.00
53802;DHT22;39709;53.334;6.534;2022-07-06T12:28:34;21.50;1.00
53802;DHT22;39709;53.334;6.534;2022-07-06T12:31:00;21.40;1.00
53802;DHT22;39709;53.334;6.534;2022-07-06T12:33:26;21.40;1.00
53802;DHT22;39709;53.334;6.534;2022-07-06T12:35:53;21.50;1.00
53802;DHT22;39709;53.334;6.534;2022-07-06T12:38:25;21.60;1.00
53802;DHT22;39709;53.334;6.534;2022-07-06T12:40:51;21.50;1.00
53802;DHT22;39709;53.334;6.534;2022-07-06T12:48:52;21.10;1.00
53802;DHT22;39709;53.334;6.534;2022-07-06T12:51:18;21.20;1.00
53802;DHT22;39709;53.334;6.534;2022-07-06T12:53:44;21.20;1.00
53802;DHT22;39709;53.334;6.534;2022-07-06T12:56:13;21.30;1.00
53802;DHT22;39709;53.334;6.534;2022-07-06T12:58:39;21.30;1.00
53802;DHT22;39709;53.334;6.534;2022-07-06T13:01:04;21.20;1.00
53802;DHT22;39709;53.334;6.534;2022-07-06T13:03:40;21.00;1.00
53802;DHT22;39709;53.334;6.534;2022-07-06T13:06:05;20.90;1.00
53802;DHT22;39709;53.334;6.534;2022-07-06T13:08:31;20.90;1.00
53802;DHT22;39709;53.334;6.534;2022-07-06T13:10:57;21.10;1.00
53802;DHT22;39709;53.334;6.534;2022-07-06T13:13:22;21.10;1.00
53802;DHT22;39709;53.334;6.534;2022-07-06T13:15:48;21.10;1.00
53802;DHT22;39709;53.334;6.534;2022-07-06T13:18:14;21.20;1.00
53802;DHT22;39709;53.334;6.534;2022-07-06T13:20:40;21.10;1.00
53802;DHT22;39709;53.334;6.534;2022-07-06T13:23:06;21.10;1.00
53802;DHT22;39709;53.334;6.534;2022-07-06T13:25:32;20.90;1.00
53802;DHT22;39709;53.334;6.534;2022-07-06T13:27:57;20.80;1.00
53802;DHT22;39709;53.334;6.534;2022-07-06T13:30:23;20.90;1.00
53802;DHT22;39709;53.334;6.534;2022-07-06T13:32:48;21.00;1.00
53802;DHT22;39709;53.334;6.534;2022-07-06T13:35:14;21.00;1.00
53802;DHT22;39709;53.334;6.534;2022-07-06T13:37:40;21.00;1.00
53802;DHT22;39709;53.334;6.534;2022-07-06T13:40:06;21.00;1.00
53802;DHT22;39709;53.334;6.534;2022-07-06T13:42:31;20.90;1.00
53802;DHT22;39709;53.334;6.534;2022-07-06T13:44:57;20.90;1.00
53802;DHT22;39709;53.334;6.534;2022-07-06T13:47:22;20.80;1.00
53802;DHT22;39709;53.334;6.534;2022-07-06T13:49:48;20.70;1.00
53802;DHT22;39709;53.334;6.534;2022-07-06T13:52:15;20.60;1.00
53802;DHT22;39709;53.334;6.534;2022-07-06T13:54:40;20.40;1.00
53802;DHT22;39709;53.334;6.534;2022-07-06T13:57:06;20.40;1.00
53802;DHT22;39709;53.334;6.534;2022-07-06T13:59:32;20.30;1.00
53802;DHT22;39709;53.334;6.534;2022-07-06T14:01:57;20.20;1.00
53802;DHT22;39709;53.334;6.534;2022-07-06T14:04:23;20.30;1.00
53802;DHT22;39709;53.334;6.534;2022-07-06T14:06:48;20.20;1.00
53802;DHT22;39709;53.334;6.534;2022-07-06T14:09:14;20.20;1.00
53802;DHT22;39709;53.334;6.534;2022-07-06T14:11:39;20.20;1.00
53802;DHT22;39709;53.334;6.534;2022-07-06T14:14:05;20.20;1.00
53802;DHT22;39709;53.334;6.534;2022-07-06T14:16:34;20.10;1.00
53802;DHT22;39709;53.334;6.534;2022-07-06T14:19:00;20.00;1.00
53802;DHT22;39709;53.334;6.534;2022-07-06T14:21:26;20.10;1.00
53802;DHT22;39709;53.334;6.534;2022-07-06T14:23:51;20.10;1.00
53802;DHT22;39709;53.334;6.534;2022-07-06T14:26:17;20.20;1.00
53802;DHT22;39709;53.334;6.534;2022-07-06T14:28:43;20.20;1.00
53802;DHT22;39709;53.334;6.534;2022-07-06T14:31:08;20.20;1.00
53802;DHT22;39709;53.334;6.534;2022-07-06T14:33:34;20.00;1.00
53802;DHT22;39709;53.334;6.534;2022-07-06T14:35:59;19.90;1.00
53802;DHT22;39709;53.334;6.534;2022-07-06T14:38:25;19.80;1.00
53802;DHT22;39709;53.334;6.534;2022-07-06T14:40:53;19.70;1.00
53802;DHT22;39709;53.334;6.534;2022-07-06T14:43:18;19.60;1.00
53802;DHT22;39709;53.334;6.534;2022-07-06T14:45:44;19.80;1.00
53802;DHT22;39709;53.334;6.534;2022-07-06T14:48:12;19.60;1.00
53802;DHT22;39709;53.334;6.534;2022-07-06T14:50:38;19.50;1.00
53802;DHT22;39709;53.334;6.534;2022-07-06T14:53:04;19.10;1.00
53802;DHT22;39709;53.334;6.534;2022-07-06T14:55:30;18.90;1.00
53802;DHT22;39709;53.334;6.534;2022-07-06T14:57:55;18.80;1.00
53802;DHT22;39709;53.334;6.534;2022-07-06T15:00:21;18.90;1.00
53802;DHT22;39709;53.334;6.534;2022-07-06T15:02:47;18.80;1.00
53802;DHT22;39709;53.334;6.534;2022-07-06T15:05:13;18.60;1.00
53802;DHT22;39709;53.334;6.534;2022-07-06T15:07:38;18.80;1.00
53802;DHT22;39709;53.334;6.534;2022-07-06T15:10:04;18.60;1.00
53802;DHT22;39709;53.334;6.534;2022-07-06T15:12:30;18.60;1.00
53802;DHT22;39709;53.334;6.534;2022-07-06T15:14:56;18.40;1.00
53802;DHT22;39709;53.334;6.534;2022-07-06T15:17:22;18.40;1.00
53802;DHT22;39709;53.334;6.534;2022-07-06T15:19:47;18.30;1.00
53802;DHT22;39709;53.334;6.534;2022-07-06T15:22:13;18.30;1.00
53802;DHT22;39709;53.334;6.534;2022-07-06T15:24:38;18.40;1.00
53802;DHT22;39709;53.334;6.534;2022-07-06T15:27:04;18.40;1.00
53802;DHT22;39709;53.334;6.534;2022-07-06T15:29:30;18.40;1.00
53802;DHT22;39709;53.334;6.534;2022-07-06T15:31:56;18.50;1.00
53802;DHT22;39709;53.334;6.534;2022-07-06T15:34:21;18.50;1.00
53802;DHT22;39709;53.334;6.534;2022-07-06T15:36:47;18.40;1.00
53802;DHT22;39709;53.334;6.534;2022-07-06T15:39:14;18.30;1.00
53802;DHT22;39709;53.334;6.534;2022-07-06T15:41:40;18.10;1.00
53802;DHT22;39709;53.334;6.534;2022-07-06T15:44:05;17.90;1.00
53802;DHT22;39709;53.334;6.534;2022-07-06T15:46:31;17.90;1.00
53802;DHT22;39709;53.334;6.534;2022-07-06T15:48:56;17.80;1.00
53802;DHT22;39709;53.334;6.534;2022-07-06T15:51:22;17.70;1.00
53802;DHT22;39709;53.334;6.534;2022-07-06T15:53:48;17.50;1.00
53802;DHT22;39709;53.334;6.534;2022-07-06T15:56:13;17.40;1.00
53802;DHT22;39709;53.334;6.534;2022-07-06T15:58:40;17.10;1.00
53802;DHT22;39709;53.334;6.534;2022-07-06T16:01:05;16.90;1.00